Sunday, February 17, 2019, 3:53 PM EST
Back to Local

KPHL, Philadelphia International Airpt

Location: Philadelphia, PA, United States Lat: 39.867
Local Time: 3:53 PM EST (20:53 GMT) Lon: -75.233
Time Zone: US/Eastern Elev: 19 ft

Show me the last for .
Show Decoded

2019-02-17 14:54 METAR KPHL 171954Z 09003KT 10SM BKN070 BKN095 BKN250 03/M07 A3006 RMK AO2 SLP180
                 T00281072 =
2019-02-17 13:54 METAR KPHL 171854Z 35003KT 10SM FEW050 SCT140 BKN170 OVC250 02/M08 A3014 RMK AO2
                 SLP205 T00221083 =
2019-02-17 12:54 METAR KPHL 171754Z 00000KT 10SM FEW050 BKN150 BKN250 02/M08 A3014 RMK AO2 SLP205
                 T00221083 10022 21033 58006 =
2019-02-17 11:54 METAR KPHL 171654Z 16003KT 10SM FEW050 BKN200 BKN250 02/M09 A3018 RMK AO2 SLP220
                 T00171089 $ =
2019-02-17 10:54 METAR KPHL 171554Z 07007KT 10SM FEW120 BKN250 01/M09 A3013 RMK AO2 PRESFR SLP204
                 T00111089 $ =
2019-02-17 09:54 METAR KPHL 171454Z 08007KT 10SM FEW200 BKN250 00/M09 A3016 RMK AO2 SLP211
                 T00001094 50006 $ =
2019-02-17 08:54 METAR KPHL 171354Z 03009KT 10SM FEW200 BKN250 M01/M09 A3017 RMK AO2 SLP217
                 T10111094 $ =
2019-02-17 07:54 METAR KPHL 171254Z 02005KT 10SM FEW220 BKN250 M03/M09 A3019 RMK AO2 SLP221
                 T10281094 $ =
2019-02-17 06:54 METAR KPHL 171154Z 36009KT 10SM SCT250 M03/M10 A3014 RMK AO2 SLP205 T10331100
                 11006 21033 53020 $ =
2019-02-17 05:54 METAR KPHL 171054Z 35006KT 10SM FEW250 M03/M10 A3010 RMK AO2 SLP194 T10331100 $
                 =
2019-02-17 04:54 METAR KPHL 170954Z 35007KT 10SM FEW250 M03/M09 A3009 RMK AO2 SLP188 T10281094 $
                 =
2019-02-17 03:54 METAR KPHL 170854Z 01010KT 10SM FEW250 M02/M09 A3008 RMK AO2 SLP185 T10221094
                 50003 $ =
2019-02-17 02:54 METAR KPHL 170754Z 35009KT 10SM CLR M02/M09 A3009 RMK AO2 SLP189 T10171094 $ =
2019-02-17 01:54 METAR KPHL 170654Z 36012KT 10SM CLR M01/M09 A3007 RMK AO2 SLP183 T10111094 $ =
2019-02-17 00:54 METAR KPHL 170554Z 36009KT 10SM CLR 00/M09 A3007 RMK AO2 SLP182 T00001094 10044
                 21006 51017 $ =
2019-02-16 23:54 METAR KPHL 170454Z 36010G16KT 10SM CLR 00/M09 A3006 RMK AO2 SLP178 T00001089
                 401000000 $ =
2019-02-16 22:54 METAR KPHL 170354Z 36008KT 10SM CLR 01/M08 A3006 RMK AO2 SLP180 T00111083 $ =
2019-02-16 21:54 METAR KPHL 170254Z 01006KT 10SM CLR 02/M08 A3002 RMK AO2 SLP166 T00171078 51024
                 =
2019-02-16 20:54 METAR KPHL 170154Z 01011KT 10SM CLR 03/M08 A3000 RMK AO2 SLP159 T00281083 =
2019-02-16 19:54 METAR KPHL 170054Z 01013KT 10SM CLR 03/M08 A2998 RMK AO2 SLP150 T00331083 =
2019-02-16 18:54 METAR KPHL 162354Z 36014KT 10SM CLR 04/M08 A2995 RMK AO2 SLP142 T00441083 10078
                 20044 53024 =
2019-02-16 17:54 METAR KPHL 162254Z 34010G17KT 10SM FEW250 05/M08 A2992 RMK AO2 SLP132 T00501078
                 =
2019-02-16 16:54 METAR KPHL 162154Z 34011KT 10SM FEW250 06/M08 A2991 RMK AO2 SLP127 T00611078 =
2019-02-16 15:54 METAR KPHL 162054Z 01009KT 10SM FEW250 07/M08 A2988 RMK AO2 SLP118 T00671083
                 55001 =

Support USWX by starting your Amazon purchase here.